sensor_id;sensor_type;location;lat;lon;timestamp;temperature;humidity
24402;DHT22;12539;48.808;11.292;2023-04-27T00:01:55;9.10;83.80
24402;DHT22;12539;48.808;11.292;2023-04-27T00:04:20;9.10;83.30
24402;DHT22;12539;48.808;11.292;2023-04-27T00:06:46;9.00;83.30
24402;DHT22;12539;48.808;11.292;2023-04-27T00:09:12;9.00;83.30
24402;DHT22;12539;48.808;11.292;2023-04-27T00:11:37;8.90;82.90
24402;DHT22;12539;48.808;11.292;2023-04-27T00:14:03;8.90;82.30
24402;DHT22;12539;48.808;11.292;2023-04-27T00:16:29;8.80;82.70
24402;DHT22;12539;48.808;11.292;2023-04-27T00:18:54;8.80;83.20
24402;DHT22;12539;48.808;11.292;2023-04-27T00:21:20;8.80;83.30
24402;DHT22;12539;48.808;11.292;2023-04-27T00:23:46;8.80;83.20
24402;DHT22;12539;48.808;11.292;2023-04-27T00:26:11;8.80;82.40
24402;DHT22;12539;48.808;11.292;2023-04-27T00:28:37;8.70;82.60
24402;DHT22;12539;48.808;11.292;2023-04-27T00:31:03;8.80;82.60
24402;DHT22;12539;48.808;11.292;2023-04-27T00:33:29;8.80;82.50
24402;DHT22;12539;48.808;11.292;2023-04-27T00:36:01;8.80;82.70
24402;DHT22;12539;48.808;11.292;2023-04-27T00:38:28;8.80;83.30
24402;DHT22;12539;48.808;11.292;2023-04-27T00:41:03;8.90;83.70
24402;DHT22;12539;48.808;11.292;2023-04-27T00:43:30;8.90;83.60
24402;DHT22;12539;48.808;11.292;2023-04-27T00:45:55;8.90;84.50
24402;DHT22;12539;48.808;11.292;2023-04-27T00:48:21;8.90;83.40
24402;DHT22;12539;48.808;11.292;2023-04-27T00:50:47;8.90;83.80
24402;DHT22;12539;48.808;11.292;2023-04-27T00:53:13;8.90;84.00
24402;DHT22;12539;48.808;11.292;2023-04-27T00:55:39;8.90;84.10
24402;DHT22;12539;48.808;11.292;2023-04-27T00:58:05;9.00;84.10
24402;DHT22;12539;48.808;11.292;2023-04-27T01:00:31;9.00;83.80
24402;DHT22;12539;48.808;11.292;2023-04-27T01:02:57;8.90;83.70
24402;DHT22;12539;48.808;11.292;2023-04-27T01:05:25;8.90;83.70
24402;DHT22;12539;48.808;11.292;2023-04-27T01:07:51;8.90;83.80
24402;DHT22;12539;48.808;11.292;2023-04-27T01:10:17;8.80;83.50
24402;DHT22;12539;48.808;11.292;2023-04-27T01:12:42;8.80;83.60
24402;DHT22;12539;48.808;11.292;2023-04-27T01:15:09;8.70;84.00
24402;DHT22;12539;48.808;11.292;2023-04-27T01:17:34;8.70;84.00
24402;DHT22;12539;48.808;11.292;2023-04-27T01:20:01;8.70;84.70
24402;DHT22;12539;48.808;11.292;2023-04-27T01:22:27;8.70;85.20
24402;DHT22;12539;48.808;11.292;2023-04-27T01:24:52;8.70;85.20
24402;DHT22;12539;48.808;11.292;2023-04-27T01:27:18;8.80;84.90
24402;DHT22;12539;48.808;11.292;2023-04-27T01:29:44;8.80;84.90
24402;DHT22;12539;48.808;11.292;2023-04-27T01:32:09;8.80;84.00
24402;DHT22;12539;48.808;11.292;2023-04-27T01:34:36;8.80;83.80
24402;DHT22;12539;48.808;11.292;2023-04-27T01:37:02;8.80;83.70
24402;DHT22;12539;48.808;11.292;2023-04-27T01:39:28;8.70;83.80
24402;DHT22;12539;48.808;11.292;2023-04-27T01:41:54;8.70;83.90
24402;DHT22;12539;48.808;11.292;2023-04-27T01:44:38;8.60;84.00
24402;DHT22;12539;48.808;11.292;2023-04-27T01:47:03;8.60;84.50
24402;DHT22;12539;48.808;11.292;2023-04-27T01:49:29;8.50;84.40
24402;DHT22;12539;48.808;11.292;2023-04-27T01:51:55;8.40;84.30
24402;DHT22;12539;48.808;11.292;2023-04-27T01:54:20;8.30;84.00
24402;DHT22;12539;48.808;11.292;2023-04-27T01:56:46;8.20;84.10
24402;DHT22;12539;48.808;11.292;2023-04-27T01:59:12;8.20;84.40
24402;DHT22;12539;48.808;11.292;2023-04-27T02:01:37;8.20;85.00
24402;DHT22;12539;48.808;11.292;2023-04-27T02:04:03;8.20;85.50
24402;DHT22;12539;48.808;11.292;2023-04-27T02:06:29;8.10;85.40
24402;DHT22;12539;48.808;11.292;2023-04-27T02:08:54;8.20;85.80
24402;DHT22;12539;48.808;11.292;2023-04-27T02:11:20;8.20;85.70
24402;DHT22;12539;48.808;11.292;2023-04-27T02:13:46;8.20;85.00
24402;DHT22;12539;48.808;11.292;2023-04-27T02:16:13;8.20;85.10
24402;DHT22;12539;48.808;11.292;2023-04-27T02:18:38;8.20;85.50
24402;DHT22;12539;48.808;11.292;2023-04-27T02:21:08;8.10;84.90
24402;DHT22;12539;48.808;11.292;2023-04-27T02:23:34;8.00;84.20
24402;DHT22;12539;48.808;11.292;2023-04-27T02:26:00;7.90;84.70
24402;DHT22;12539;48.808;11.292;2023-04-27T02:28:26;7.80;85.10
24402;DHT22;12539;48.808;11.292;2023-04-27T02:30:51;7.70;85.80
24402;DHT22;12539;48.808;11.292;2023-04-27T02:33:17;7.60;86.60
24402;DHT22;12539;48.808;11.292;2023-04-27T02:35:42;7.60;87.10
24402;DHT22;12539;48.808;11.292;2023-04-27T02:38:08;7.50;87.00
24402;DHT22;12539;48.808;11.292;2023-04-27T02:40:34;7.40;86.40
24402;DHT22;12539;48.808;11.292;2023-04-27T02:43:00;7.40;87.20
24402;DHT22;12539;48.808;11.292;2023-04-27T02:45:26;7.30;87.50
24402;DHT22;12539;48.808;11.292;2023-04-27T02:47:52;7.20;87.70
24402;DHT22;12539;48.808;11.292;2023-04-27T02:50:20;7.30;88.10
24402;DHT22;12539;48.808;11.292;2023-04-27T02:52:46;7.30;88.10
24402;DHT22;12539;48.808;11.292;2023-04-27T02:55:12;7.30;88.30
24402;DHT22;12539;48.808;11.292;2023-04-27T02:57:38;7.30;88.30
24402;DHT22;12539;48.808;11.292;2023-04-27T03:00:06;7.30;88.10
24402;DHT22;12539;48.808;11.292;2023-04-27T03:02:33;7.30;88.40
24402;DHT22;12539;48.808;11.292;2023-04-27T03:04:59;7.30;88.60
24402;DHT22;12539;48.808;11.292;2023-04-27T03:07:25;7.20;88.50
24402;DHT22;12539;48.808;11.292;2023-04-27T03:09:51;7.10;88.40
24402;DHT22;12539;48.808;11.292;2023-04-27T03:12:16;7.00;89.30
24402;DHT22;12539;48.808;11.292;2023-04-27T03:14:42;7.00;88.80
24402;DHT22;12539;48.808;11.292;2023-04-27T03:17:08;7.00;89.10
24402;DHT22;12539;48.808;11.292;2023-04-27T03:19:33;7.00;89.10
24402;DHT22;12539;48.808;11.292;2023-04-27T03:21:59;7.00;89.20
24402;DHT22;12539;48.808;11.292;2023-04-27T03:24:25;7.00;89.10
24402;DHT22;12539;48.808;11.292;2023-04-27T03:26:52;7.00;88.70
24402;DHT22;12539;48.808;11.292;2023-04-27T03:29:17;6.90;88.30
24402;DHT22;12539;48.808;11.292;2023-04-27T03:31:43;6.80;88.90
24402;DHT22;12539;48.808;11.292;2023-04-27T03:34:09;6.80;89.20
24402;DHT22;12539;48.808;11.292;2023-04-27T03:36:35;6.70;88.80
24402;DHT22;12539;48.808;11.292;2023-04-27T03:39:00;6.50;88.70
24402;DHT22;12539;48.808;11.292;2023-04-27T03:41:26;6.40;88.80
24402;DHT22;12539;48.808;11.292;2023-04-27T03:43:52;6.30;89.10
24402;DHT22;12539;48.808;11.292;2023-04-27T03:46:17;6.20;89.10
24402;DHT22;12539;48.808;11.292;2023-04-27T03:48:43;6.10;89.70
24402;DHT22;12539;48.808;11.292;2023-04-27T03:51:12;6.10;90.20
24402;DHT22;12539;48.808;11.292;2023-04-27T03:53:38;6.10;90.30
24402;DHT22;12539;48.808;11.292;2023-04-27T03:56:04;6.20;90.60
24402;DHT22;12539;48.808;11.292;2023-04-27T03:58:29;6.20;90.60
24402;DHT22;12539;48.808;11.292;2023-04-27T04:00:55;6.20;90.80
24402;DHT22;12539;48.808;11.292;2023-04-27T04:03:21;6.30;90.70
24402;DHT22;12539;48.808;11.292;2023-04-27T04:05:47;6.30;90.90
24402;DHT22;12539;48.808;11.292;2023-04-27T04:08:13;6.40;90.90
24402;DHT22;12539;48.808;11.292;2023-04-27T04:10:38;6.50;91.00
24402;DHT22;12539;48.808;11.292;2023-04-27T04:13:04;6.50;90.70
24402;DHT22;12539;48.808;11.292;2023-04-27T04:15:30;6.60;90.60
24402;DHT22;12539;48.808;11.292;2023-04-27T04:17:55;6.70;90.80
24402;DHT22;12539;48.808;11.292;2023-04-27T04:20:21;6.70;90.60
24402;DHT22;12539;48.808;11.292;2023-04-27T04:22:47;6.70;90.70
24402;DHT22;12539;48.808;11.292;2023-04-27T04:25:13;6.80;91.00
24402;DHT22;12539;48.808;11.292;2023-04-27T04:27:39;6.90;91.00
24402;DHT22;12539;48.808;11.292;2023-04-27T04:30:06;7.00;91.10
24402;DHT22;12539;48.808;11.292;2023-04-27T04:32:32;7.10;90.90
24402;DHT22;12539;48.808;11.292;2023-04-27T04:34:58;7.20;91.10
24402;DHT22;12539;48.808;11.292;2023-04-27T04:37:26;7.30;91.10
24402;DHT22;12539;48.808;11.292;2023-04-27T04:39:52;7.40;91.00
24402;DHT22;12539;48.808;11.292;2023-04-27T04:42:17;7.40;91.00
24402;DHT22;12539;48.808;11.292;2023-04-27T04:44:43;7.50;90.90
24402;DHT22;12539;48.808;11.292;2023-04-27T04:47:09;7.50;90.90
24402;DHT22;12539;48.808;11.292;2023-04-27T04:49:35;7.60;91.00
24402;DHT22;12539;48.808;11.292;2023-04-27T04:52:01;7.60;90.60
24402;DHT22;12539;48.808;11.292;2023-04-27T04:54:28;7.60;90.60
24402;DHT22;12539;48.808;11.292;2023-04-27T04:56:54;7.60;90.80
24402;DHT22;12539;48.808;11.292;2023-04-27T04:59:20;7.80;91.00
24402;DHT22;12539;48.808;11.292;2023-04-27T05:01:46;7.80;90.90
24402;DHT22;12539;48.808;11.292;2023-04-27T05:04:12;7.90;90.80
24402;DHT22;12539;48.808;11.292;2023-04-27T05:06:37;8.00;90.80
24402;DHT22;12539;48.808;11.292;2023-04-27T05:09:03;8.10;91.10
24402;DHT22;12539;48.808;11.292;2023-04-27T05:11:31;8.20;91.30
24402;DHT22;12539;48.808;11.292;2023-04-27T05:13:56;8.40;91.50
24402;DHT22;12539;48.808;11.292;2023-04-27T05:16:22;8.40;90.80
24402;DHT22;12539;48.808;11.292;2023-04-27T05:18:48;8.50;91.00
24402;DHT22;12539;48.808;11.292;2023-04-27T05:21:17;8.70;91.00
24402;DHT22;12539;48.808;11.292;2023-04-27T05:23:45;8.70;90.60
24402;DHT22;12539;48.808;11.292;2023-04-27T05:26:15;8.80;90.60
24402;DHT22;12539;48.808;11.292;2023-04-27T05:28:42;8.90;90.70
24402;DHT22;12539;48.808;11.292;2023-04-27T05:31:07;9.00;90.50
24402;DHT22;12539;48.808;11.292;2023-04-27T05:33:33;9.00;90.40
24402;DHT22;12539;48.808;11.292;2023-04-27T05:35:59;9.10;90.30
24402;DHT22;12539;48.808;11.292;2023-04-27T05:38:25;9.20;90.50
24402;DHT22;12539;48.808;11.292;2023-04-27T05:40:55;9.30;90.80
24402;DHT22;12539;48.808;11.292;2023-04-27T05:43:21;9.50;90.70
24402;DHT22;12539;48.808;11.292;2023-04-27T05:45:47;9.50;90.20
24402;DHT22;12539;48.808;11.292;2023-04-27T05:48:12;9.60;90.30
24402;DHT22;12539;48.808;11.292;2023-04-27T05:50:38;9.70;90.50
24402;DHT22;12539;48.808;11.292;2023-04-27T05:53:04;9.80;90.80
24402;DHT22;12539;48.808;11.292;2023-04-27T05:55:30;9.90;91.00
24402;DHT22;12539;48.808;11.292;2023-04-27T05:57:56;10.00;90.80
24402;DHT22;12539;48.808;11.292;2023-04-27T06:00:22;10.00;90.50
24402;DHT22;12539;48.808;11.292;2023-04-27T06:02:47;10.20;90.20
24402;DHT22;12539;48.808;11.292;2023-04-27T06:05:13;10.20;90.00
24402;DHT22;12539;48.808;11.292;2023-04-27T06:07:39;10.30;90.10
24402;DHT22;12539;48.808;11.292;2023-04-27T06:10:08;10.50;90.60
24402;DHT22;12539;48.808;11.292;2023-04-27T06:12:34;10.60;90.80
24402;DHT22;12539;48.808;11.292;2023-04-27T06:15:00;10.80;90.80
24402;DHT22;12539;48.808;11.292;2023-04-27T06:17:28;11.00;90.70
24402;DHT22;12539;48.808;11.292;2023-04-27T06:19:53;11.30;90.80
24402;DHT22;12539;48.808;11.292;2023-04-27T06:22:19;11.50;90.80
24402;DHT22;12539;48.808;11.292;2023-04-27T06:24:45;11.60;90.50
24402;DHT22;12539;48.808;11.292;2023-04-27T06:27:11;11.70;90.30
24402;DHT22;12539;48.808;11.292;2023-04-27T06:29:37;11.70;90.00
24402;DHT22;12539;48.808;11.292;2023-04-27T06:32:03;11.70;89.70
24402;DHT22;12539;48.808;11.292;2023-04-27T06:34:32;11.70;88.20
24402;DHT22;12539;48.808;11.292;2023-04-27T06:36:58;11.70;88.80
24402;DHT22;12539;48.808;11.292;2023-04-27T06:39:23;11.70;88.90
24402;DHT22;12539;48.808;11.292;2023-04-27T06:41:49;11.80;88.80
24402;DHT22;12539;48.808;11.292;2023-04-27T06:44:14;11.80;89.00
24402;DHT22;12539;48.808;11.292;2023-04-27T06:46:40;11.90;89.00
24402;DHT22;12539;48.808;11.292;2023-04-27T06:49:06;12.00;87.40
24402;DHT22;12539;48.808;11.292;2023-04-27T06:51:31;12.00;87.40
24402;DHT22;12539;48.808;11.292;2023-04-27T06:53:58;12.10;87.60
24402;DHT22;12539;48.808;11.292;2023-04-27T06:56:23;12.20;88.20
24402;DHT22;12539;48.808;11.292;2023-04-27T06:58:49;12.20;88.00
24402;DHT22;12539;48.808;11.292;2023-04-27T07:01:14;12.20;87.80
24402;DHT22;12539;48.808;11.292;2023-04-27T07:03:41;12.20;87.50
24402;DHT22;12539;48.808;11.292;2023-04-27T07:06:06;12.20;86.10
24402;DHT22;12539;48.808;11.292;2023-04-27T07:08:32;12.20;84.90
24402;DHT22;12539;48.808;11.292;2023-04-27T07:10:58;12.20;86.20
24402;DHT22;12539;48.808;11.292;2023-04-27T07:13:23;12.30;85.10
24402;DHT22;12539;48.808;11.292;2023-04-27T07:15:56;12.30;84.20
24402;DHT22;12539;48.808;11.292;2023-04-27T07:18:22;12.30;82.90
24402;DHT22;12539;48.808;11.292;2023-04-27T07:20:48;12.30;82.50
24402;DHT22;12539;48.808;11.292;2023-04-27T07:23:14;12.40;81.00
24402;DHT22;12539;48.808;11.292;2023-04-27T07:25:39;12.40;80.70
24402;DHT22;12539;48.808;11.292;2023-04-27T07:28:05;12.50;82.10
24402;DHT22;12539;48.808;11.292;2023-04-27T07:30:33;12.50;80.60
24402;DHT22;12539;48.808;11.292;2023-04-27T07:33:00;12.70;81.10
24402;DHT22;12539;48.808;11.292;2023-04-27T07:35:28;12.80;80.30
24402;DHT22;12539;48.808;11.292;2023-04-27T07:37:54;12.80;80.80
24402;DHT22;12539;48.808;11.292;2023-04-27T07:40:21;13.00;81.80
24402;DHT22;12539;48.808;11.292;2023-04-27T07:42:48;13.10;81.30
24402;DHT22;12539;48.808;11.292;2023-04-27T07:45:14;13.20;79.00
24402;DHT22;12539;48.808;11.292;2023-04-27T07:47:42;13.20;80.10
24402;DHT22;12539;48.808;11.292;2023-04-27T07:50:09;13.20;80.00
24402;DHT22;12539;48.808;11.292;2023-04-27T07:52:35;13.40;80.00
24402;DHT22;12539;48.808;11.292;2023-04-27T07:55:01;13.50;78.90
24402;DHT22;12539;48.808;11.292;2023-04-27T07:57:30;13.60;78.90
24402;DHT22;12539;48.808;11.292;2023-04-27T07:59:56;13.70;79.40
24402;DHT22;12539;48.808;11.292;2023-04-27T08:02:22;13.80;78.80
24402;DHT22;12539;48.808;11.292;2023-04-27T08:04:48;13.90;79.00
24402;DHT22;12539;48.808;11.292;2023-04-27T08:07:18;14.00;78.80
24402;DHT22;12539;48.808;11.292;2023-04-27T08:09:44;14.10;78.80
24402;DHT22;12539;48.808;11.292;2023-04-27T08:12:29;14.20;77.90
24402;DHT22;12539;48.808;11.292;2023-04-27T08:14:58;14.30;76.80
24402;DHT22;12539;48.808;11.292;2023-04-27T08:17:24;14.30;76.10
24402;DHT22;12539;48.808;11.292;2023-04-27T08:19:50;14.30;75.90
24402;DHT22;12539;48.808;11.292;2023-04-27T08:22:15;14.30;75.70
24402;DHT22;12539;48.808;11.292;2023-04-27T08:24:41;14.20;75.10
24402;DHT22;12539;48.808;11.292;2023-04-27T08:27:07;14.20;75.50
24402;DHT22;12539;48.808;11.292;2023-04-27T08:29:33;14.20;74.80
24402;DHT22;12539;48.808;11.292;2023-04-27T08:32:00;14.30;75.00
24402;DHT22;12539;48.808;11.292;2023-04-27T08:34:27;14.30;75.00
24402;DHT22;12539;48.808;11.292;2023-04-27T08:36:53;14.50;75.00
24402;DHT22;12539;48.808;11.292;2023-04-27T08:39:19;14.70;74.80
24402;DHT22;12539;48.808;11.292;2023-04-27T08:41:45;14.80;74.70
24402;DHT22;12539;48.808;11.292;2023-04-27T08:44:11;14.90;73.90
24402;DHT22;12539;48.808;11.292;2023-04-27T08:46:37;15.10;73.50
24402;DHT22;12539;48.808;11.292;2023-04-27T08:49:03;15.20;73.40
24402;DHT22;12539;48.808;11.292;2023-04-27T08:51:31;15.40;71.90
24402;DHT22;12539;48.808;11.292;2023-04-27T08:53:57;15.50;70.90
24402;DHT22;12539;48.808;11.292;2023-04-27T08:56:25;15.70;70.70
24402;DHT22;12539;48.808;11.292;2023-04-27T08:58:52;15.90;70.60
24402;DHT22;12539;48.808;11.292;2023-04-27T09:01:18;16.00;70.30
24402;DHT22;12539;48.808;11.292;2023-04-27T09:03:44;16.20;69.40
24402;DHT22;12539;48.808;11.292;2023-04-27T09:06:13;16.40;68.40
24402;DHT22;12539;48.808;11.292;2023-04-27T09:08:47;16.60;68.00
24402;DHT22;12539;48.808;11.292;2023-04-27T09:11:30;16.80;67.50
24402;DHT22;12539;48.808;11.292;2023-04-27T09:13:58;17.00;66.20
24402;DHT22;12539;48.808;11.292;2023-04-27T09:16:25;17.10;65.10
24402;DHT22;12539;48.808;11.292;2023-04-27T09:18:51;17.30;65.30
24402;DHT22;12539;48.808;11.292;2023-04-27T09:21:25;17.50;65.20
24402;DHT22;12539;48.808;11.292;2023-04-27T09:23:51;17.60;63.50
24402;DHT22;12539;48.808;11.292;2023-04-27T09:26:24;17.60;61.50
24402;DHT22;12539;48.808;11.292;2023-04-27T09:28:53;17.50;61.20
24402;DHT22;12539;48.808;11.292;2023-04-27T09:31:19;17.40;59.40
24402;DHT22;12539;48.808;11.292;2023-04-27T09:33:45;17.30;60.00
24402;DHT22;12539;48.808;11.292;2023-04-27T09:36:19;17.10;59.30
24402;DHT22;12539;48.808;11.292;2023-04-27T09:38:46;16.90;59.70
24402;DHT22;12539;48.808;11.292;2023-04-27T09:41:12;16.60;58.50
24402;DHT22;12539;48.808;11.292;2023-04-27T09:43:38;16.50;59.50
24402;DHT22;12539;48.808;11.292;2023-04-27T09:46:04;16.30;59.00
24402;DHT22;12539;48.808;11.292;2023-04-27T09:48:30;16.10;59.90
24402;DHT22;12539;48.808;11.292;2023-04-27T09:50:56;15.90;59.50
24402;DHT22;12539;48.808;11.292;2023-04-27T09:53:36;15.60;59.30
24402;DHT22;12539;48.808;11.292;2023-04-27T09:59:25;15.10;60.20
24402;DHT22;12539;48.808;11.292;2023-04-27T10:01:57;14.90;61.60
24402;DHT22;12539;48.808;11.292;2023-04-27T10:07:25;14.70;60.70
24402;DHT22;12539;48.808;11.292;2023-04-27T10:09:51;14.50;61.50
24402;DHT22;12539;48.808;11.292;2023-04-27T10:12:36;14.50;62.40
24402;DHT22;12539;48.808;11.292;2023-04-27T10:15:15;14.40;62.50
24402;DHT22;12539;48.808;11.292;2023-04-27T10:17:51;14.40;62.10
24402;DHT22;12539;48.808;11.292;2023-04-27T10:20:35;14.40;62.20
24402;DHT22;12539;48.808;11.292;2023-04-27T10:23:00;14.30;61.30
24402;DHT22;12539;48.808;11.292;2023-04-27T10:25:37;14.30;61.50
24402;DHT22;12539;48.808;11.292;2023-04-27T10:28:03;14.30;62.10
24402;DHT22;12539;48.808;11.292;2023-04-27T10:30:37;14.30;61.70
24402;DHT22;12539;48.808;11.292;2023-04-27T10:33:08;14.40;61.50
24402;DHT22;12539;48.808;11.292;2023-04-27T10:35:40;14.40;61.90
24402;DHT22;12539;48.808;11.292;2023-04-27T10:38:14;14.40;62.40
24402;DHT22;12539;48.808;11.292;2023-04-27T10:40:43;14.40;61.20
24402;DHT22;12539;48.808;11.292;2023-04-27T10:43:14;14.40;60.70
24402;DHT22;12539;48.808;11.292;2023-04-27T10:45:41;14.40;59.70
24402;DHT22;12539;48.808;11.292;2023-04-27T10:48:07;14.40;59.60
24402;DHT22;12539;48.808;11.292;2023-04-27T10:50:34;14.40;57.90
24402;DHT22;12539;48.808;11.292;2023-04-27T10:53:02;14.40;57.80
24402;DHT22;12539;48.808;11.292;2023-04-27T10:55:28;14.40;58.50
24402;DHT22;12539;48.808;11.292;2023-04-27T10:57:56;14.50;58.40
24402;DHT22;12539;48.808;11.292;2023-04-27T11:00:26;14.50;58.50
24402;DHT22;12539;48.808;11.292;2023-04-27T11:02:55;14.60;58.50
24402;DHT22;12539;48.808;11.292;2023-04-27T11:05:24;14.60;59.00
24402;DHT22;12539;48.808;11.292;2023-04-27T11:08:06;14.60;59.00
24402;DHT22;12539;48.808;11.292;2023-04-27T11:10:33;14.60;59.50
24402;DHT22;12539;48.808;11.292;2023-04-27T11:18:10;14.60;59.30
24402;DHT22;12539;48.808;11.292;2023-04-27T11:20:36;14.60;59.90
24402;DHT22;12539;48.808;11.292;2023-04-27T11:23:02;14.50;60.20
24402;DHT22;12539;48.808;11.292;2023-04-27T11:25:28;14.50;60.40
24402;DHT22;12539;48.808;11.292;2023-04-27T11:27:54;14.60;60.40
24402;DHT22;12539;48.808;11.292;2023-04-27T11:30:21;14.60;61.30
24402;DHT22;12539;48.808;11.292;2023-04-27T11:32:48;14.70;60.00
24402;DHT22;12539;48.808;11.292;2023-04-27T11:35:14;14.70;59.40
24402;DHT22;12539;48.808;11.292;2023-04-27T11:37:40;14.70;58.00
24402;DHT22;12539;48.808;11.292;2023-04-27T11:40:07;14.70;58.50
24402;DHT22;12539;48.808;11.292;2023-04-27T11:42:33;14.80;59.30
24402;DHT22;12539;48.808;11.292;2023-04-27T11:45:03;14.80;58.60
24402;DHT22;12539;48.808;11.292;2023-04-27T11:47:33;14.90;58.70
24402;DHT22;12539;48.808;11.292;2023-04-27T11:50:04;14.80;58.50
24402;DHT22;12539;48.808;11.292;2023-04-27T11:52:35;14.90;58.20
24402;DHT22;12539;48.808;11.292;2023-04-27T11:55:02;14.90;56.10
24402;DHT22;12539;48.808;11.292;2023-04-27T11:57:32;14.90;57.60
24402;DHT22;12539;48.808;11.292;2023-04-27T11:59:59;14.90;59.00
24402;DHT22;12539;48.808;11.292;2023-04-27T12:02:29;14.90;59.10
24402;DHT22;12539;48.808;11.292;2023-04-27T12:04:57;14.90;59.40
24402;DHT22;12539;48.808;11.292;2023-04-27T12:07:23;14.90;59.00
24402;DHT22;12539;48.808;11.292;2023-04-27T12:09:48;14.90;58.90
24402;DHT22;12539;48.808;11.292;2023-04-27T12:12:14;15.00;58.90
24402;DHT22;12539;48.808;11.292;2023-04-27T12:14:46;15.00;59.00
24402;DHT22;12539;48.808;11.292;2023-04-27T12:17:11;15.20;58.50
24402;DHT22;12539;48.808;11.292;2023-04-27T12:19:37;15.20;58.50
24402;DHT22;12539;48.808;11.292;2023-04-27T12:22:02;15.40;59.10
24402;DHT22;12539;48.808;11.292;2023-04-27T12:24:29;15.50;57.30
24402;DHT22;12539;48.808;11.292;2023-04-27T12:26:55;15.50;57.20
24402;DHT22;12539;48.808;11.292;2023-04-27T12:29:21;15.60;57.40
24402;DHT22;12539;48.808;11.292;2023-04-27T12:31:46;15.70;57.50
24402;DHT22;12539;48.808;11.292;2023-04-27T12:34:12;15.70;57.50
24402;DHT22;12539;48.808;11.292;2023-04-27T12:36:38;15.70;56.00
24402;DHT22;12539;48.808;11.292;2023-04-27T12:39:18;15.70;55.20
24402;DHT22;12539;48.808;11.292;2023-04-27T12:41:47;15.70;56.50
24402;DHT22;12539;48.808;11.292;2023-04-27T12:44:13;15.70;56.00
24402;DHT22;12539;48.808;11.292;2023-04-27T12:46:40;15.80;56.40
24402;DHT22;12539;48.808;11.292;2023-04-27T12:49:07;15.90;54.90
24402;DHT22;12539;48.808;11.292;2023-04-27T12:51:33;15.90;55.70
24402;DHT22;12539;48.808;11.292;2023-04-27T12:53:59;16.00;55.10
24402;DHT22;12539;48.808;11.292;2023-04-27T12:56:26;16.10;56.20
24402;DHT22;12539;48.808;11.292;2023-04-27T12:58:52;16.20;55.10
24402;DHT22;12539;48.808;11.292;2023-04-27T13:01:18;16.30;55.70
24402;DHT22;12539;48.808;11.292;2023-04-27T13:03:46;16.40;55.60
24402;DHT22;12539;48.808;11.292;2023-04-27T13:06:12;16.50;55.60
24402;DHT22;12539;48.808;11.292;2023-04-27T13:08:38;16.60;55.60
24402;DHT22;12539;48.808;11.292;2023-04-27T13:11:04;16.70;54.00
24402;DHT22;12539;48.808;11.292;2023-04-27T13:13:30;16.70;53.70
24402;DHT22;12539;48.808;11.292;2023-04-27T13:15:56;16.80;53.60
24402;DHT22;12539;48.808;11.292;2023-04-27T13:18:23;16.80;53.90
24402;DHT22;12539;48.808;11.292;2023-04-27T13:20:49;16.90;53.80
24402;DHT22;12539;48.808;11.292;2023-04-27T13:23:14;17.00;54.20
24402;DHT22;12539;48.808;11.292;2023-04-27T13:25:40;17.10;54.30
24402;DHT22;12539;48.808;11.292;2023-04-27T13:28:06;17.20;53.20
24402;DHT22;12539;48.808;11.292;2023-04-27T13:30:32;17.30;53.90
24402;DHT22;12539;48.808;11.292;2023-04-27T13:32:58;17.40;53.90
24402;DHT22;12539;48.808;11.292;2023-04-27T13:35:24;17.40;54.20
24402;DHT22;12539;48.808;11.292;2023-04-27T13:37:50;17.50;54.40
24402;DHT22;12539;48.808;11.292;2023-04-27T13:40:21;17.60;54.40
24402;DHT22;12539;48.808;11.292;2023-04-27T13:42:46;17.60;54.70
24402;DHT22;12539;48.808;11.292;2023-04-27T13:45:12;17.70;54.30
24402;DHT22;12539;48.808;11.292;2023-04-27T13:47:39;17.60;52.50
24402;DHT22;12539;48.808;11.292;2023-04-27T13:50:09;17.50;52.10
24402;DHT22;12539;48.808;11.292;2023-04-27T13:52:36;17.40;51.90
24402;DHT22;12539;48.808;11.292;2023-04-27T13:55:02;17.40;52.90
24402;DHT22;12539;48.808;11.292;2023-04-27T13:57:28;17.40;53.70
24402;DHT22;12539;48.808;11.292;2023-04-27T13:59:54;17.40;53.60
24402;DHT22;12539;48.808;11.292;2023-04-27T14:02:20;17.40;52.70
24402;DHT22;12539;48.808;11.292;2023-04-27T14:04:46;17.40;53.60
24402;DHT22;12539;48.808;11.292;2023-04-27T14:07:11;17.40;52.90
24402;DHT22;12539;48.808;11.292;2023-04-27T14:09:38;17.50;53.00
24402;DHT22;12539;48.808;11.292;2023-04-27T14:12:04;17.50;52.70
24402;DHT22;12539;48.808;11.292;2023-04-27T14:14:30;17.60;53.10
24402;DHT22;12539;48.808;11.292;2023-04-27T14:16:55;17.60;53.60
24402;DHT22;12539;48.808;11.292;2023-04-27T14:19:21;17.60;53.50
24402;DHT22;12539;48.808;11.292;2023-04-27T14:21:50;17.60;53.00
24402;DHT22;12539;48.808;11.292;2023-04-27T14:24:16;17.60;53.30
24402;DHT22;12539;48.808;11.292;2023-04-27T14:26:41;17.60;53.40
24402;DHT22;12539;48.808;11.292;2023-04-27T14:29:09;17.50;53.40
24402;DHT22;12539;48.808;11.292;2023-04-27T14:31:36;17.50;53.60
24402;DHT22;12539;48.808;11.292;2023-04-27T14:34:03;17.40;54.10
24402;DHT22;12539;48.808;11.292;2023-04-27T14:36:28;17.40;53.80
24402;DHT22;12539;48.808;11.292;2023-04-27T14:38:54;17.40;54.10
24402;DHT22;12539;48.808;11.292;2023-04-27T14:41:20;17.40;54.00
24402;DHT22;12539;48.808;11.292;2023-04-27T14:43:45;17.40;54.30
24402;DHT22;12539;48.808;11.292;2023-04-27T14:46:16;17.40;54.30
24402;DHT22;12539;48.808;11.292;2023-04-27T14:48:42;17.40;53.20
24402;DHT22;12539;48.808;11.292;2023-04-27T14:51:08;17.30;53.60
24402;DHT22;12539;48.808;11.292;2023-04-27T14:53:33;17.30;54.00
24402;DHT22;12539;48.808;11.292;2023-04-27T14:55:59;17.30;54.20
24402;DHT22;12539;48.808;11.292;2023-04-27T14:58:25;17.30;54.60
24402;DHT22;12539;48.808;11.292;2023-04-27T15:00:51;17.40;55.20
24402;DHT22;12539;48.808;11.292;2023-04-27T15:03:17;17.40;55.10
24402;DHT22;12539;48.808;11.292;2023-04-27T15:05:43;17.50;54.70
24402;DHT22;12539;48.808;11.292;2023-04-27T15:08:09;17.50;54.70
24402;DHT22;12539;48.808;11.292;2023-04-27T15:10:34;17.60;54.70
24402;DHT22;12539;48.808;11.292;2023-04-27T15:13:03;17.60;54.20
24402;DHT22;12539;48.808;11.292;2023-04-27T15:15:29;17.60;53.30
24402;DHT22;12539;48.808;11.292;2023-04-27T15:17:55;17.60;53.40
24402;DHT22;12539;48.808;11.292;2023-04-27T15:20:21;17.70;53.80
24402;DHT22;12539;48.808;11.292;2023-04-27T15:22:46;17.70;54.50
24402;DHT22;12539;48.808;11.292;2023-04-27T15:25:12;17.80;54.30
24402;DHT22;12539;48.808;11.292;2023-04-27T15:27:37;17.80;52.30
24402;DHT22;12539;48.808;11.292;2023-04-27T15:30:04;17.70;53.40
24402;DHT22;12539;48.808;11.292;2023-04-27T15:32:30;17.60;53.70